Graysville, Georgia
Current Conditions -  °F | °C
As of 4:53 AM on Wednesday 22 Oct 2014 (Local Time) from KCHA Reporting Station
Clear Clear  
Wind Chill: 43°   Ceiling: Unl
Heat Index: 46°   Visibility: 10mi
Dew Point: 40°   Wind: 6mph
Humidity: 79%   Direction: 330°NNW
Pressure: 30.11"   Gusts: NA
Location:  34.98°N, 85.14°W
Report Text: KCHA 220853Z AUTO 33005KT 10SM CLR 08/04 A3011 RMK AO2 SLP194 T00780044 53006
Loading
Personal Weather Stations






























Interactive Weather Map
Tropical Storm Tracking
New forecast layout! Learn more

10-Day Weather Forecast

Advertisements
Track Severe Weather on mobile